Time;durP1;ratioP1;P1;durP2;ratioP2;P2;SDS_P1;SDS_P2;PMS_P1;PMS_P2;Temp;Humidity;BMP_temperature;BMP_pressure;BME280_temperature;BME280_humidity;BME280_pressure;Samples;Min_cycle;Max_cycle;Signal;HPM_P1;HPM_P2
2023/05/30 00:00:25;;;;;;;5.45;1.73;;;;;;;16.64;42.95;102022.47;5081907;28;20487;-39
2023/05/30 00:02:51;;;;;;;5.25;1.42;;;;;;;16.63;42.94;102030.56;5081337;28;20044;-39
2023/05/30 00:05:17;;;;;;;4.93;1.42;;;;;;;16.56;43.11;102027.44;5082344;28;20036;-40
2023/05/30 00:07:43;;;;;;;3.42;1.02;;;;;;;16.41;43.33;102030.06;5080748;28;20478;-43
2023/05/30 00:10:08;;;;;;;5.88;1.45;;;;;;;16.48;43.37;102027.03;5071857;28;20051;-38
2023/05/30 00:12:35;;;;;;;4.93;1.30;;;;;;;16.48;43.21;102035.88;5072554;28;20121;-41
2023/05/30 00:15:01;;;;;;;4.78;1.02;;;;;;;16.55;43.19;102031.03;5072353;28;20044;-43
2023/05/30 00:17:27;;;;;;;6.70;1.20;;;;;;;16.46;43.37;102035.97;5077455;28;20150;-39
2023/05/30 00:19:54;;;;;;;5.15;1.10;;;;;;;16.38;43.44;102048.88;5060141;28;20119;-41
2023/05/30 00:22:23;;;;;;;4.25;1.23;;;;;;;16.35;43.46;102051.72;5074908;28;20035;-39
2023/05/30 00:24:49;;;;;;;5.65;1.55;;;;;;;16.42;43.50;102053.03;5077774;28;20074;-40
2023/05/30 00:27:15;;;;;;;2.42;0.93;;;;;;;16.43;43.60;102052.09;5076339;28;20074;-39
2023/05/30 00:29:41;;;;;;;6.85;1.48;;;;;;;16.42;43.58;102053.03;5063009;28;20093;-39
2023/05/30 00:32:06;;;;;;;5.00;1.20;;;;;;;16.40;43.51;102049.66;5063875;28;20028;-38
2023/05/30 00:34:32;;;;;;;6.88;1.92;;;;;;;16.34;43.76;102050.00;5053261;28;20036;-40
2023/05/30 00:36:57;;;;;;;7.18;1.48;;;;;;;16.26;44.10;102050.47;5050602;28;20039;-42
2023/05/30 00:39:23;;;;;;;6.60;1.98;;;;;;;16.21;44.21;102047.25;5067143;28;20043;-42
2023/05/30 00:41:48;;;;;;;4.72;1.42;;;;;;;16.15;44.42;102048.47;5077588;28;20031;-40
2023/05/30 00:44:14;;;;;;;6.60;2.20;;;;;;;16.14;44.38;102046.75;5061092;28;20433;-39
2023/05/30 00:46:40;;;;;;;6.75;2.65;;;;;;;16.08;44.73;102047.16;5065273;28;20441;-40
2023/05/30 00:49:05;;;;;;;8.02;2.25;;;;;;;16.11;44.57;102044.28;5066501;28;20060;-39
2023/05/30 00:51:32;;;;;;;6.80;2.20;;;;;;;16.05;44.99;102044.69;5065187;28;20093;-39
2023/05/30 00:53:59;;;;;;;5.25;2.28;;;;;;;16.07;44.89;102042.78;5038471;28;20032;-42
2023/05/30 00:56:26;;;;;;;6.38;2.10;;;;;;;16.04;45.15;102045.63;5059495;28;20035;-38
2023/05/30 00:58:52;;;;;;;7.63;2.70;;;;;;;16.06;44.97;102034.91;5068491;28;20036;-39
2023/05/30 01:01:20;;;;;;;7.22;2.70;;;;;;;15.98;45.15;102038.00;5046193;28;20406;-42
2023/05/30 01:03:47;;;;;;;9.13;2.95;;;;;;;15.94;45.20;102040.00;5048375;28;22073;-42
2023/05/30 01:06:13;;;;;;;6.93;3.20;;;;;;;15.92;45.31;102039.25;5073602;28;20131;-41
2023/05/30 01:08:39;;;;;;;9.90;2.50;;;;;;;15.90;45.40;102040.28;5067238;28;20461;-41
2023/05/30 01:11:15;;;;;;;10.13;2.50;;;;;;;15.85;45.66;102037.91;5081575;28;20032;-40
2023/05/30 01:13:54;;;;;;;7.32;2.20;;;;;;;15.95;45.38;102040.88;5076675;28;20170;-41
2023/05/30 01:16:25;;;;;;;6.03;1.70;;;;;;;15.97;44.95;102042.47;5049098;28;20020;-39
2023/05/30 01:19:28;;;;;;;7.40;1.70;;;;;;;16.01;44.98;102043.16;5060855;28;20071;-38
2023/05/30 01:22:34;;;;;;;7.93;1.58;;;;;;;16.05;44.88;102043.81;5010024;28;20132;-40
2023/05/30 01:25:22;;;;;;;3.85;1.77;;;;;;;15.92;44.97;102041.06;5055295;28;20449;-40
2023/05/30 01:28:04;;;;;;;3.63;1.65;;;;;;;15.90;45.16;102041.13;5065015;28;20034;-39
2023/05/30 01:30:30;;;;;;;4.72;1.30;;;;;;;15.89;44.93;102039.41;5072412;28;20028;-40
2023/05/30 01:32:56;;;;;;;4.90;1.50;;;;;;;15.88;44.86;102036.88;5058235;28;20040;-40
2023/05/30 01:35:23;;;;;;;8.23;1.65;;;;;;;15.79;44.92;102039.09;5079740;28;20034;-39
2023/05/30 01:37:49;;;;;;;3.42;1.10;;;;;;;15.69;45.37;102051.19;5064903;28;20028;-40
2023/05/30 01:40:20;;;;;;;3.17;1.17;;;;;;;15.56;46.02;102051.06;5079693;28;20028;-40
2023/05/30 01:42:52;;;;;;;7.10;1.05;;;;;;;15.44;46.01;102047.31;5076952;28;20036;-40
2023/05/30 01:45:27;;;;;;;7.07;1.92;;;;;;;15.19;46.80;102051.38;5080221;28;20039;-41
2023/05/30 01:48:05;;;;;;;5.05;1.88;;;;;;;15.20;46.67;102049.56;5079434;28;20032;-40
2023/05/30 01:50:52;;;;;;;6.72;1.67;;;;;;;15.17;46.91;102050.63;5077902;28;20066;-42
2023/05/30 01:53:25;;;;;;;5.47;1.13;;;;;;;15.25;46.48;102047.53;5062022;28;20068;-40
2023/05/30 01:55:54;;;;;;;3.33;1.73;;;;;;;15.24;46.47;102038.69;5073448;28;20024;-41
2023/05/30 01:58:23;;;;;;;5.70;1.60;;;;;;;15.15;46.69;102041.88;5061482;28;20020;-40
2023/05/30 02:00:50;;;;;;;3.20;1.20;;;;;;;15.06;47.04;102053.00;5078341;28;20028;-40
2023/05/30 02:03:16;;;;;;;6.43;1.40;;;;;;;15.14;46.91;102049.91;5073824;28;20032;-40
2023/05/30 02:05:41;;;;;;;6.43;1.83;;;;;;;15.21;46.78;102044.16;5078972;28;20073;-39
2023/05/30 02:08:07;;;;;;;3.58;1.25;;;;;;;15.28;46.64;102049.13;5058842;28;20085;-40
2023/05/30 02:10:33;;;;;;;7.18;1.20;;;;;;;15.16;46.90;102040.94;5054623;28;20025;-39
2023/05/30 02:12:58;;;;;;;5.50;1.40;;;;;;;15.03;47.28;102047.88;5073965;28;20612;-39
2023/05/30 02:15:24;;;;;;;8.05;1.50;;;;;;;15.00;47.51;102048.03;5058976;28;20033;-40
2023/05/30 02:17:49;;;;;;;4.60;1.40;;;;;;;15.07;47.17;102047.63;5046164;28;20036;-39
2023/05/30 02:20:14;;;;;;;4.93;1.50;;;;;;;15.09;47.12;102052.81;5060398;28;20683;-39
2023/05/30 02:22:40;;;;;;;13.73;2.03;;;;;;;15.03;47.37;102058.47;5068087;28;20070;-40
2023/05/30 02:25:06;;;;;;;9.07;3.08;;;;;;;14.98;47.54;102049.91;5077142;28;21189;-39
2023/05/30 02:27:31;;;;;;;3.08;1.40;;;;;;;14.98;47.64;102041.97;5069079;28;20036;-39
2023/05/30 02:29:56;;;;;;;6.97;1.63;;;;;;;14.98;47.48;102047.28;5066151;28;20054;-38
2023/05/30 02:32:22;;;;;;;7.38;1.55;;;;;;;14.94;47.84;102047.44;5067915;28;20025;-40
2023/05/30 02:34:47;;;;;;;7.68;2.10;;;;;;;14.92;47.89;102054.63;5049862;28;20032;-38
2023/05/30 02:37:13;;;;;;;6.65;1.52;;;;;;;14.93;47.77;102056.31;5043593;28;20043;-42
2023/05/30 02:39:38;;;;;;;3.65;1.00;;;;;;;14.96;47.66;102054.44;5059075;28;20078;-44
2023/05/30 02:42:05;;;;;;;4.40;1.17;;;;;;;14.97;47.63;102056.16;5045618;28;20044;-40
2023/05/30 02:44:31;;;;;;;3.55;1.35;;;;;;;14.99;47.81;102055.13;5069245;28;20083;-39
2023/05/30 02:46:56;;;;;;;6.20;1.40;;;;;;;14.93;47.47;102051.03;5068832;28;20479;-40
2023/05/30 02:49:22;;;;;;;3.60;1.23;;;;;;;14.90;47.77;102056.47;5061400;28;20051;-40
2023/05/30 02:51:47;;;;;;;6.55;1.33;;;;;;;14.86;47.97;102052.31;5048741;28;20040;-42
2023/05/30 02:54:13;;;;;;;3.97;1.30;;;;;;;14.85;48.00;102053.25;5068837;28;20372;-42
2023/05/30 02:56:38;;;;;;;5.05;1.33;;;;;;;14.79;48.23;102050.94;5046192;28;20032;-39
2023/05/30 02:59:04;;;;;;;3.90;1.38;;;;;;;14.86;48.05;102054.97;5065944;28;20100;-39
2023/05/30 03:01:29;;;;;;;5.13;1.48;;;;;;;14.99;47.65;102062.22;5045466;28;20040;-40
2023/05/30 03:03:55;;;;;;;8.05;1.25;;;;;;;15.08;47.47;102061.72;5030916;28;20035;-39
2023/05/30 03:06:20;;;;;;;5.60;1.52;;;;;;;15.12;47.25;102065.91;5058859;28;20036;-39
2023/05/30 03:08:56;;;;;;;8.85;2.03;;;;;;;15.15;47.31;102055.13;5064370;28;20051;-40
2023/05/30 03:11:22;;;;;;;4.72;1.92;;;;;;;15.12;47.36;102071.22;5078619;28;20022;-40
2023/05/30 03:13:47;;;;;;;3.70;1.42;;;;;;;15.08;47.37;102069.66;5061227;28;20032;-40
2023/05/30 03:16:12;;;;;;;4.60;1.50;;;;;;;15.09;47.27;102076.69;5034901;28;20116;-39
2023/05/30 03:18:39;;;;;;;6.63;1.65;;;;;;;14.99;47.49;102080.78;5077243;28;20474;-40
2023/05/30 03:21:05;;;;;;;6.75;2.50;;;;;;;14.89;47.67;102081.31;5062571;28;20039;-41
2023/05/30 03:23:31;;;;;;;32.67;15.18;;;;;;;14.72;48.12;102078.72;5046013;28;20029;-40
2023/05/30 03:25:56;;;;;;;23.25;10.15;;;;;;;14.81;47.83;102077.38;5059593;28;20039;-39
2023/05/30 03:28:21;;;;;;;22.65;9.23;;;;;;;14.74;48.22;102076.84;5044923;28;20036;-41
2023/05/30 03:30:47;;;;;;;12.07;3.00;;;;;;;14.78;48.31;102079.22;5078693;28;20037;-42
2023/05/30 03:33:12;;;;;;;6.07;1.95;;;;;;;14.83;48.12;102086.94;5065749;28;20050;-40
2023/05/30 03:35:38;;;;;;;4.78;1.92;;;;;;;14.80;48.21;102081.78;5062853;28;20455;-38
2023/05/30 03:38:03;;;;;;;5.43;1.50;;;;;;;14.87;47.95;102087.59;5045161;28;20036;-38
2023/05/30 03:40:28;;;;;;;7.00;2.08;;;;;;;14.97;47.67;102088.84;5052561;28;20043;-39
2023/05/30 03:42:55;;;;;;;7.50;1.80;;;;;;;14.99;47.77;102094.03;5062412;28;20078;-43
2023/05/30 03:45:20;;;;;;;7.45;2.25;;;;;;;14.93;47.82;102096.06;5043623;28;20524;-39
2023/05/30 03:47:45;;;;;;;6.55;1.58;;;;;;;14.89;48.09;102097.22;5059646;28;20111;-39
2023/05/30 03:50:11;;;;;;;7.88;1.65;;;;;;;14.90;48.15;102093.59;5064402;28;20035;-40
2023/05/30 03:52:36;;;;;;;6.43;2.15;;;;;;;14.90;47.98;102098.88;5041390;28;20025;-38
2023/05/30 03:55:02;;;;;;;6.60;2.30;;;;;;;14.81;48.38;102096.75;5037142;28;20039;-39
2023/05/30 03:57:28;;;;;;;64.03;31.70;;;;;;;14.78;48.48;102097.78;5053812;28;20424;-41
2023/05/30 03:59:53;;;;;;;67.28;36.72;;;;;;;14.82;48.73;102101.13;5052859;28;20040;-41
2023/05/30 04:02:18;;;;;;;14.82;5.85;;;;;;;14.86;48.53;102097.38;5062594;28;20035;-39
2023/05/30 04:04:45;;;;;;;5.70;2.70;;;;;;;14.92;48.42;102107.63;5074793;28;20066;-38
2023/05/30 04:07:10;;;;;;;5.95;1.90;;;;;;;14.86;48.73;102101.78;5073006;28;20023;-39
2023/05/30 04:09:35;;;;;;;7.50;1.70;;;;;;;14.83;48.86;102100.19;5071720;28;20032;-40
2023/05/30 04:12:01;;;;;;;6.05;2.20;;;;;;;14.90;48.40;102096.25;5061082;28;20119;-39
2023/05/30 04:14:26;;;;;;;6.35;2.40;;;;;;;14.98;48.51;102108.22;5085317;28;20165;-41
2023/05/30 04:16:52;;;;;;;4.10;1.55;;;;;;;15.03;48.27;102108.84;5050329;28;20043;-43
2023/05/30 04:19:17;;;;;;;7.47;2.40;;;;;;;15.10;48.12;102110.19;5056859;28;20016;-40
2023/05/30 04:21:43;;;;;;;4.88;1.55;;;;;;;15.12;48.07;102110.97;5054081;28;20169;-44
2023/05/30 04:24:08;;;;;;;7.38;2.50;;;;;;;15.16;48.31;102109.88;5035175;28;20033;-41
2023/05/30 04:26:36;;;;;;;5.07;2.05;;;;;;;15.18;48.11;102118.59;5069529;28;20028;-41
2023/05/30 04:29:01;;;;;;;7.60;2.88;;;;;;;15.22;48.06;102125.44;5056777;28;21792;-40
2023/05/30 04:31:27;;;;;;;9.90;2.20;;;;;;;15.23;48.14;102116.53;5054400;28;20914;-41
2023/05/30 04:33:54;;;;;;;4.85;1.90;;;;;;;15.27;48.10;102122.53;5075003;28;20036;-39
2023/05/30 04:36:19;;;;;;;6.47;1.67;;;;;;;15.24;47.89;102118.25;5071380;28;20067;-43
2023/05/30 04:38:49;;;;;;;10.00;2.75;;;;;;;15.20;48.33;102127.31;5048688;28;21059;-42
2023/05/30 04:41:20;;;;;;;8.15;1.67;;;;;;;15.23;48.52;102124.47;5035473;28;20119;-40
2023/05/30 04:43:52;;;;;;;10.75;2.38;;;;;;;15.27;48.36;102124.31;5040165;28;20036;-43
2023/05/30 04:46:21;;;;;;;8.18;2.38;;;;;;;15.35;48.40;102127.41;5071513;28;20202;-42
2023/05/30 04:48:48;;;;;;;10.88;2.80;;;;;;;15.39;48.28;102124.50;5076168;28;20403;-41
2023/05/30 04:51:14;;;;;;;5.72;2.05;;;;;;;15.37;48.26;102133.47;5056516;28;20028;-40
2023/05/30 04:53:40;;;;;;;8.27;1.65;;;;;;;15.29;48.38;102127.75;5073534;28;20024;-41
2023/05/30 04:56:06;;;;;;;5.55;1.83;;;;;;;15.21;48.58;102138.78;5075807;28;20035;-41
2023/05/30 04:58:32;;;;;;;5.43;2.05;;;;;;;15.16;48.67;102140.81;5039073;28;20020;-43
2023/05/30 05:00:58;;;;;;;10.05;2.05;;;;;;;15.14;48.78;102138.25;5056325;28;20036;-40
2023/05/30 05:03:24;;;;;;;7.28;1.90;;;;;;;15.15;48.62;102132.03;5072910;28;20020;-40
2023/05/30 05:05:50;;;;;;;11.18;1.77;;;;;;;15.21;48.73;102133.47;5062475;28;20081;-41
2023/05/30 05:08:16;;;;;;;6.72;2.25;;;;;;;15.29;48.67;102138.34;5057809;28;20055;-40
2023/05/30 05:10:41;;;;;;;7.07;2.53;;;;;;;15.29;48.67;102135.69;5075458;28;20031;-39
2023/05/30 05:13:06;;;;;;;6.80;1.83;;;;;;;15.51;48.13;102136.19;5056834;28;20082;-40
2023/05/30 05:15:32;;;;;;;6.97;1.90;;;;;;;15.52;48.20;102135.25;5072865;28;20037;-39
2023/05/30 05:17:58;;;;;;;6.72;1.92;;;;;;;15.51;48.40;102140.66;5069739;28;20032;-40
2023/05/30 05:20:24;;;;;;;5.15;1.67;;;;;;;15.51;48.51;102138.84;5033330;28;20023;-40
2023/05/30 05:22:50;;;;;;;11.70;2.13;;;;;;;15.51;48.54;102144.16;5076302;28;20064;-41
2023/05/30 05:25:16;;;;;;;5.63;1.73;;;;;;;15.57;48.52;102147.41;5042329;28;20036;-39
2023/05/30 05:27:41;;;;;;;5.57;1.58;;;;;;;15.65;48.45;102148.69;5047343;28;20097;-39
2023/05/30 05:30:08;;;;;;;6.43;2.15;;;;;;;15.68;48.38;102143.22;5064179;28;20036;-42
2023/05/30 05:32:36;;;;;;;8.40;1.67;;;;;;;15.74;48.34;102152.63;5063193;28;20508;-40
2023/05/30 05:35:02;;;;;;;8.13;2.22;;;;;;;15.82;48.48;102149.53;5073439;28;20036;-40
2023/05/30 05:37:27;;;;;;;6.32;2.00;;;;;;;15.93;48.13;102156.91;5075731;28;20033;-41
2023/05/30 05:39:53;;;;;;;10.07;1.88;;;;;;;15.84;48.79;102156.44;5070215;28;20028;-40
2023/05/30 05:42:18;;;;;;;8.23;1.70;;;;;;;15.84;48.93;102151.13;5057483;28;20037;-41
2023/05/30 05:44:44;;;;;;;8.95;1.80;;;;;;;15.90;49.04;102154.41;5054310;28;20064;-45
2023/05/30 05:47:09;;;;;;;4.22;1.85;;;;;;;15.95;49.02;102149.72;5050934;28;20071;-39
2023/05/30 05:49:35;;;;;;;8.52;1.83;;;;;;;16.07;49.08;102151.66;5033137;28;20076;-39
2023/05/30 05:52:00;;;;;;;12.05;2.15;;;;;;;16.21;48.91;102157.94;5032134;28;20168;-41
2023/05/30 05:54:25;;;;;;;6.72;2.00;;;;;;;16.33;48.79;102151.06;5049987;28;20034;-41
2023/05/30 05:56:51;;;;;;;9.85;2.78;;;;;;;16.41;48.76;102146.13;5051128;28;20028;-40
2023/05/30 05:59:16;;;;;;;9.30;1.90;;;;;;;16.45;48.92;102148.50;5041100;28;20036;-40
2023/05/30 06:01:42;;;;;;;12.65;2.28;;;;;;;16.52;48.67;102154.28;5059269;28;20032;-39
2023/05/30 06:04:12;;;;;;;11.32;2.03;;;;;;;16.59;48.86;102160.06;5047884;28;20410;-38
2023/05/30 06:06:38;;;;;;;8.50;1.98;;;;;;;16.64;48.66;102163.31;5072597;28;20037;-39
2023/05/30 06:09:04;;;;;;;6.95;1.95;;;;;;;16.68;48.46;102163.97;5054543;28;20398;-40
2023/05/30 06:11:29;;;;;;;4.72;1.85;;;;;;;16.70;48.55;102162.97;5060968;28;20031;-42
2023/05/30 06:13:55;;;;;;;6.22;2.20;;;;;;;16.74;48.34;102168.94;5059196;28;20024;-38
2023/05/30 06:16:20;;;;;;;18.88;2.42;;;;;;;16.78;48.35;102170.47;5054243;28;20060;-39
2023/05/30 06:18:46;;;;;;;9.05;1.85;;;;;;;16.86;48.36;102175.31;5069715;28;20039;-41
2023/05/30 06:21:11;;;;;;;8.23;1.75;;;;;;;16.91;48.42;102181.19;5064568;28;20028;-40
2023/05/30 06:23:37;;;;;;;5.50;1.73;;;;;;;16.90;48.32;102180.34;5046306;28;20398;-40
2023/05/30 06:26:03;;;;;;;6.25;1.40;;;;;;;16.97;48.22;102182.63;5044418;28;20040;-39
2023/05/30 06:28:28;;;;;;;8.73;1.83;;;;;;;17.02;48.36;102178.72;5070652;28;20097;-41
2023/05/30 06:30:53;;;;;;;7.35;1.40;;;;;;;17.09;48.10;102186.34;5059548;28;20103;-41
2023/05/30 06:33:20;;;;;;;3.60;1.40;;;;;;;17.14;48.07;102189.56;5062111;28;20055;-40
2023/05/30 06:35:46;;;;;;;5.20;1.55;;;;;;;17.18;47.89;102178.63;5064384;28;20046;-44
2023/05/30 06:38:12;;;;;;;10.98;1.67;;;;;;;17.20;47.83;102178.53;5080182;28;20474;-40
2023/05/30 06:40:37;;;;;;;6.88;1.63;;;;;;;17.25;47.67;102179.09;5059064;28;20036;-41
2023/05/30 06:43:03;;;;;;;6.07;1.65;;;;;;;17.29;47.17;102180.63;5052775;28;20032;-41
2023/05/30 06:45:28;;;;;;;7.95;2.10;;;;;;;17.32;47.44;102177.75;5062080;28;20040;-40
2023/05/30 06:47:53;;;;;;;6.88;1.40;;;;;;;17.35;47.29;102179.38;5064529;28;20024;-40
2023/05/30 06:50:19;;;;;;;8.60;1.63;;;;;;;17.37;46.82;102180.97;5060639;28;20065;-40
2023/05/30 06:52:45;;;;;;;5.25;1.67;;;;;;;17.40;46.63;102185.22;5042308;28;20036;-41
2023/05/30 06:55:10;;;;;;;4.65;1.38;;;;;;;17.41;46.76;102188.75;5056719;28;20475;-43
2023/05/30 06:57:38;;;;;;;5.22;1.58;;;;;;;17.44;46.64;102183.25;5076377;28;20086;-42
2023/05/30 07:00:05;;;;;;;6.47;1.50;;;;;;;17.47;46.54;102183.06;5071751;28;20047;-45
2023/05/30 07:02:30;;;;;;;4.85;1.50;;;;;;;17.52;46.49;102181.81;5064110;28;20044;-43
2023/05/30 07:04:55;;;;;;;5.88;1.50;;;;;;;17.57;46.37;102191.28;5053255;28;20042;-41
2023/05/30 07:07:21;;;;;;;13.32;1.92;;;;;;;17.58;46.42;102191.19;5076117;28;20055;-41
2023/05/30 07:09:46;;;;;;;4.13;1.27;;;;;;;17.64;46.49;102201.44;5061192;28;20494;-43
2023/05/30 07:12:12;;;;;;;2.90;1.20;;;;;;;17.66;45.97;102204.00;5076048;28;20511;-40
2023/05/30 07:14:37;;;;;;;6.28;1.25;;;;;;;17.68;45.88;102194.97;5045789;28;20054;-40
2023/05/30 07:17:06;;;;;;;4.95;1.50;;;;;;;17.73;45.42;102199.16;5049261;28;20040;-44
2023/05/30 07:19:32;;;;;;;7.70;1.88;;;;;;;17.74;45.02;102200.84;5057967;28;20579;-43
2023/05/30 07:21:57;;;;;;;5.38;1.40;;;;;;;17.74;44.71;102195.53;5062540;28;20024;-43
2023/05/30 07:24:22;;;;;;;5.32;1.30;;;;;;;17.77;44.39;102201.50;5059577;28;20023;-40
2023/05/30 07:26:51;;;;;;;12.05;3.58;;;;;;;17.80;44.29;102206.63;5031649;28;20035;-41
2023/05/30 07:29:18;;;;;;;6.80;2.38;;;;;;;17.84;44.00;102209.94;5034571;28;20024;-40
2023/05/30 07:31:43;;;;;;;6.05;2.17;;;;;;;17.89;44.05;102210.50;5079896;28;20059;-40
2023/05/30 07:34:09;;;;;;;7.03;2.78;;;;;;;17.92;43.74;102209.44;5036580;28;20063;-40
2023/05/30 07:36:34;;;;;;;8.85;2.38;;;;;;;17.93;43.69;102212.00;5057454;28;20032;-40
2023/05/30 07:39:00;;;;;;;17.15;4.93;;;;;;;17.95;43.54;102207.41;5052639;28;20394;-42
2023/05/30 07:41:26;;;;;;;4.43;1.20;;;;;;;17.96;43.25;102205.63;5065969;28;20036;-41
2023/05/30 07:43:51;;;;;;;9.23;3.08;;;;;;;17.96;43.00;102206.47;5032567;28;20505;-40
2023/05/30 07:46:17;;;;;;;9.30;1.40;;;;;;;17.98;42.68;102214.41;5058186;28;20089;-42
2023/05/30 07:48:43;;;;;;;6.97;1.50;;;;;;;18.02;42.84;102215.03;5064086;28;20538;-40
2023/05/30 07:51:10;;;;;;;5.43;1.67;;;;;;;18.02;42.71;102213.22;5063374;28;20112;-41
2023/05/30 07:53:36;;;;;;;5.65;1.20;;;;;;;18.02;42.34;102215.88;5059705;28;20119;-41
2023/05/30 07:56:02;;;;;;;4.88;1.42;;;;;;;18.03;42.22;102211.44;5060053;28;20135;-42
2023/05/30 07:58:28;;;;;;;7.38;1.50;;;;;;;18.07;42.13;102208.47;5076427;28;20389;-40
2023/05/30 08:00:53;;;;;;;4.22;1.92;;;;;;;18.13;42.12;102207.19;5074142;28;20483;-43
2023/05/30 08:03:19;;;;;;;11.93;2.97;;;;;;;18.17;41.77;102223.81;5080970;28;20035;-41
2023/05/30 08:05:46;;;;;;;4.95;1.77;;;;;;;18.17;41.55;102214.03;5062339;28;20044;-40
2023/05/30 08:08:12;;;;;;;9.57;1.30;;;;;;;18.17;41.58;102219.34;5058187;28;20486;-40
2023/05/30 08:10:38;;;;;;;5.68;1.08;;;;;;;18.23;41.45;102221.59;5067198;28;20114;-40
2023/05/30 08:13:05;;;;;;;7.45;1.45;;;;;;;18.23;41.23;102213.59;5061415;28;20166;-40
2023/05/30 08:15:31;;;;;;;5.57;2.28;;;;;;;18.29;41.32;102215.03;5080176;28;20118;-40
2023/05/30 08:17:57;;;;;;;5.25;1.40;;;;;;;18.32;41.24;102205.97;5047823;28;20123;-40
2023/05/30 08:20:23;;;;;;;9.32;1.50;;;;;;;18.32;40.83;102221.94;5049506;28;20470;-40
2023/05/30 08:22:50;;;;;;;6.32;1.48;;;;;;;18.32;40.68;102216.63;5057440;28;20505;-42
2023/05/30 08:25:16;;;;;;;8.88;1.35;;;;;;;18.35;40.79;102216.41;5054463;28;20051;-40
2023/05/30 08:27:42;;;;;;;5.25;1.27;;;;;;;18.33;40.59;102229.81;5062821;28;20060;-41
2023/05/30 08:30:08;;;;;;;6.00;1.58;;;;;;;18.36;40.37;102226.13;5047273;28;20055;-40
2023/05/30 08:32:34;;;;;;;5.30;1.52;;;;;;;18.40;40.46;102219.59;5046424;28;20039;-41
2023/05/30 08:35:00;;;;;;;8.52;2.00;;;;;;;18.47;40.66;102217.38;5049250;28;20066;-40
2023/05/30 08:37:26;;;;;;;7.97;1.67;;;;;;;18.50;40.53;102233.16;5032539;28;20040;-40
2023/05/30 08:39:51;;;;;;;6.15;1.58;;;;;;;18.48;40.42;102237.75;5075918;28;20535;-41
2023/05/30 08:42:17;;;;;;;2.67;1.10;;;;;;;18.42;40.46;102229.22;5074995;28;20053;-41
2023/05/30 08:44:42;;;;;;;8.05;1.77;;;;;;;18.41;40.58;102239.97;5031489;28;20036;-41
2023/05/30 08:47:12;;;;;;;6.43;1.52;;;;;;;18.49;40.28;102228.78;5059612;28;20078;-40
2023/05/30 08:49:42;;;;;;;5.28;1.40;;;;;;;18.55;40.15;102229.22;5048891;28;20367;-40
2023/05/30 08:52:12;;;;;;;6.68;1.90;;;;;;;18.63;40.11;102227.84;5077580;28;20016;-41
2023/05/30 08:54:47;;;;;;;4.75;1.52;;;;;;;18.66;39.60;102222.31;5052718;28;20024;-41
2023/05/30 08:57:26;;;;;;;8.07;1.58;;;;;;;18.69;39.61;102220.28;5061348;28;20028;-41
2023/05/30 08:59:53;;;;;;;8.68;2.72;;;;;;;18.73;39.92;102223.59;5079855;28;20473;-41
2023/05/30 09:02:20;;;;;;;6.13;1.67;;;;;;;18.78;39.88;102228.59;5061783;28;20024;-44
2023/05/30 09:04:48;;;;;;;10.57;1.80;;;;;;;18.81;39.35;102221.25;5055945;28;20032;-41
2023/05/30 09:07:14;;;;;;;8.43;1.67;;;;;;;18.88;39.15;102225.19;5055059;28;20059;-41
2023/05/30 09:09:41;;;;;;;6.75;1.67;;;;;;;18.93;39.09;102226.69;5040284;28;20059;-42
2023/05/30 09:12:08;;;;;;;4.18;1.63;;;;;;;18.92;38.56;102227.66;5079293;28;20031;-40
2023/05/30 09:14:34;;;;;;;9.50;1.63;;;;;;;18.90;38.52;102219.78;5062423;28;20123;-43
2023/05/30 09:16:59;;;;;;;5.22;1.63;;;;;;;18.92;38.74;102225.81;5064930;28;20028;-40
2023/05/30 09:19:26;;;;;;;6.68;1.70;;;;;;;18.97;38.98;102217.56;5049978;28;20123;-40
2023/05/30 09:21:51;;;;;;;6.90;1.70;;;;;;;19.01;39.13;102219.91;5065953;28;20041;-41
2023/05/30 09:24:17;;;;;;;8.05;2.13;;;;;;;19.02;38.99;102220.75;5058484;28;20031;-40
2023/05/30 09:27:01;;;;;;;8.23;1.77;;;;;;;19.10;38.67;102223.72;5076150;28;20181;-40
2023/05/30 09:29:26;;;;;;;5.15;1.38;;;;;;;19.14;38.94;102216.34;5078542;28;20490;-40
2023/05/30 09:31:52;;;;;;;6.72;1.60;;;;;;;19.18;38.78;102223.19;5075714;28;20112;-41
2023/05/30 09:34:22;;;;;;;12.38;3.78;;;;;;;19.21;38.61;102227.44;5056422;28;20039;-41
2023/05/30 09:36:55;;;;;;;7.63;1.77;;;;;;;19.24;38.30;102232.56;5048809;28;20509;-41
2023/05/30 09:39:21;;;;;;;7.47;1.33;;;;;;;19.23;38.37;102231.69;5054442;28;20016;-41
2023/05/30 09:41:47;;;;;;;8.82;2.33;;;;;;;19.28;38.54;102231.41;5058777;28;20051;-40
2023/05/30 09:44:12;;;;;;;12.10;1.90;;;;;;;19.29;37.86;102243.75;5039192;28;20394;-41
2023/05/30 09:46:38;;;;;;;8.75;2.33;;;;;;;19.25;36.64;102244.94;5048871;28;20655;-43
2023/05/30 09:49:14;;;;;;;6.72;1.40;;;;;;;19.23;35.33;102246.88;5073213;28;20119;-42
2023/05/30 09:51:41;;;;;;;6.35;2.65;;;;;;;19.24;36.24;102245.91;5072674;28;20433;-40
2023/05/30 09:54:08;;;;;;;7.88;1.75;;;;;;;19.24;36.24;102244.06;5062364;28;20032;-41
2023/05/30 09:56:40;;;;;;;7.60;2.03;;;;;;;19.26;36.59;102244.00;5076904;28;20028;-40
2023/05/30 09:59:08;;;;;;;3.58;1.15;;;;;;;19.31;36.44;102249.84;5057322;28;20646;-41
2023/05/30 10:01:45;;;;;;;8.60;1.98;;;;;;;19.38;35.75;102248.44;5054412;28;20127;-40
2023/05/30 10:04:21;;;;;;;10.88;2.72;;;;;;;19.43;36.34;102246.31;5073457;28;20040;-40
2023/05/30 10:06:49;;;;;;;5.97;1.95;;;;;;;19.50;36.42;102257.41;5060257;28;20023;-41
2023/05/30 10:09:15;;;;;;;6.47;1.55;;;;;;;19.47;36.34;102261.13;5056457;28;20027;-41
2023/05/30 10:11:43;;;;;;;8.77;2.13;;;;;;;19.48;36.53;102249.47;5046829;28;20029;-41
2023/05/30 10:14:10;;;;;;;4.22;1.77;;;;;;;19.50;36.23;102254.72;5063720;28;20024;-41
2023/05/30 10:16:40;;;;;;;7.35;1.73;;;;;;;19.57;35.93;102250.63;5062150;28;20044;-41
2023/05/30 10:19:12;;;;;;;5.85;1.63;;;;;;;19.63;35.66;102247.53;5063437;28;20028;-41
2023/05/30 10:21:40;;;;;;;6.97;1.52;;;;;;;19.70;35.45;102255.94;5059644;28;20073;-41
2023/05/30 10:24:10;;;;;;;4.88;1.70;;;;;;;19.71;34.79;102256.78;5060805;28;20513;-41
2023/05/30 10:26:42;;;;;;;5.55;1.70;;;;;;;19.68;34.76;102241.84;5045097;28;20051;-41
2023/05/30 10:29:11;;;;;;;9.38;1.98;;;;;;;19.70;35.29;102247.94;5059652;28;20051;-41
2023/05/30 10:31:37;;;;;;;7.00;2.25;;;;;;;19.74;35.57;102246.72;5058922;28;20119;-41
2023/05/30 10:34:05;;;;;;;8.77;1.45;;;;;;;19.83;35.27;102247.03;5062470;28;20782;-41
2023/05/30 10:36:32;;;;;;;7.07;1.83;;;;;;;19.87;35.28;102245.88;5069984;28;22000;-41
2023/05/30 10:39:15;;;;;;;6.25;2.05;;;;;;;19.95;35.16;102243.50;5058343;28;20123;-41
2023/05/30 10:42:06;;;;;;;5.07;1.27;;;;;;;20.00;34.88;102244.00;5073827;28;20029;-42
2023/05/30 10:44:40;;;;;;;8.23;1.70;;;;;;;20.01;34.96;102242.19;5080533;28;20155;-40
2023/05/30 10:47:09;;;;;;;6.78;2.28;;;;;;;20.06;34.74;102240.03;5061675;28;20028;-40
2023/05/30 10:49:36;;;;;;;5.53;1.95;;;;;;;20.08;34.93;102228.25;5061752;28;20031;-41
2023/05/30 10:52:03;;;;;;;4.75;1.60;;;;;;;20.12;34.92;102228.84;5064997;28;20078;-41
2023/05/30 10:54:31;;;;;;;6.15;1.70;;;;;;;20.20;34.71;102220.25;5070523;28;20159;-40
2023/05/30 10:56:58;;;;;;;5.22;1.70;;;;;;;20.23;35.14;102228.06;5060888;28;20024;-41
2023/05/30 10:59:24;;;;;;;3.38;0.75;;;;;;;20.27;34.72;102229.53;5078613;28;20036;-42
2023/05/30 11:02:08;;;;;;;4.65;1.80;;;;;;;20.34;34.42;102230.78;5046336;28;20099;-42
2023/05/30 11:04:35;;;;;;;3.90;1.38;;;;;;;20.36;34.79;102231.50;5076955;28;20044;-41
2023/05/30 11:07:05;;;;;;;4.03;1.50;;;;;;;20.39;34.76;102236.63;5054598;28;20042;-40
2023/05/30 11:09:31;;;;;;;6.43;1.67;;;;;;;20.41;34.83;102229.34;5054392;28;20043;-41
2023/05/30 11:11:59;;;;;;;6.53;1.60;;;;;;;20.46;34.87;102225.47;5077207;28;20128;-41
2023/05/30 11:14:31;;;;;;;3.65;1.08;;;;;;;20.48;34.50;102234.22;5082739;28;20049;-41
2023/05/30 11:17:05;;;;;;;3.83;1.40;;;;;;;20.53;34.00;102224.00;5077094;28;20063;-41
2023/05/30 11:19:48;;;;;;;3.67;1.48;;;;;;;20.60;34.29;102230.59;5063516;28;20085;-41
2023/05/30 11:22:15;;;;;;;5.90;1.98;;;;;;;20.63;34.60;102229.50;5076603;28;20478;-45
2023/05/30 11:24:41;;;;;;;10.95;4.72;;;;;;;20.69;34.23;102240.56;5075076;28;20036;-41